createdAt,value
2018-12-25T00:05:27.326Z,0.90
2018-12-25T00:07:58.053Z,0.80
2018-12-25T00:10:28.672Z,0.70
2018-12-25T00:12:59.321Z,0.70
2018-12-25T00:15:30.045Z,0.60
2018-12-25T00:18:00.784Z,0.50
2018-12-25T00:20:33.329Z,0.40
2018-12-25T00:23:03.817Z,0.40
2018-12-25T00:25:34.521Z,0.30
2018-12-25T00:28:05.189Z,0.40
2018-12-25T00:30:35.839Z,0.40
2018-12-25T00:33:06.592Z,0.40
2018-12-25T00:35:37.334Z,0.40
2018-12-25T00:38:08.058Z,0.40
2018-12-25T00:40:38.688Z,0.30
2018-12-25T00:43:09.256Z,0.30
2018-12-25T00:45:39.866Z,0.30
2018-12-25T00:48:10.489Z,0.30
2018-12-25T00:50:41.214Z,0.20
2018-12-25T00:53:11.851Z,0.20
2018-12-25T00:55:42.576Z,0.20
2018-12-25T00:58:13.288Z,0.20
2018-12-25T01:00:43.937Z,0.20
2018-12-25T01:03:14.508Z,0.20
2018-12-25T01:05:45.237Z,0.20
2018-12-25T01:08:15.881Z,0.10
2018-12-25T01:10:46.556Z,0.00
2018-12-25T01:13:17.199Z,0.00
2018-12-25T01:15:47.925Z,0.00
2018-12-25T01:18:18.646Z,0.00
2018-12-25T01:20:50.233Z,0.00
2018-12-25T01:23:20.947Z,0.00
2018-12-25T01:25:51.682Z,-0.10
2018-12-25T01:28:22.394Z,-0.10
2018-12-25T01:30:53.142Z,-0.20
2018-12-25T01:33:23.859Z,-0.10
2018-12-25T01:35:54.630Z,-0.10
2018-12-25T01:38:25.262Z,-0.10
2018-12-25T01:40:56.001Z,-0.10
2018-12-25T01:43:26.638Z,-0.10
2018-12-25T01:45:57.301Z,-0.20
2018-12-25T01:48:27.937Z,-0.20
2018-12-25T01:50:58.598Z,-0.20
2018-12-25T01:53:29.321Z,-0.20
2018-12-25T01:55:59.905Z,-0.20
2018-12-25T01:58:31.041Z,-0.30
2018-12-25T02:01:01.697Z,-0.30
2018-12-25T02:03:32.414Z,-0.30
2018-12-25T02:06:03.081Z,-0.30
2018-12-25T02:08:33.801Z,-0.30
2018-12-25T02:11:04.475Z,-0.20
2018-12-25T02:13:35.176Z,-0.20
2018-12-25T02:16:05.911Z,-0.10
2018-12-25T02:18:36.651Z,-0.20
2018-12-25T02:21:07.377Z,-0.20
2018-12-25T02:23:38.355Z,-0.40
2018-12-25T02:26:09.100Z,-0.40
2018-12-25T02:28:39.844Z,-0.40
2018-12-25T02:31:10.497Z,-0.40
2018-12-25T02:33:41.223Z,-0.50
2018-12-25T02:36:11.982Z,-0.50
2018-12-25T02:38:42.713Z,-0.40
2018-12-25T02:41:13.459Z,-0.30
2018-12-25T02:43:44.102Z,-0.30
2018-12-25T02:46:14.865Z,-0.20
2018-12-25T02:48:45.596Z,-0.30
2018-12-25T02:51:16.337Z,-0.30
2018-12-25T02:53:46.977Z,-0.40
2018-12-25T02:56:17.654Z,-0.30
2018-12-25T02:58:48.374Z,-0.30
2018-12-25T03:01:19.113Z,-0.20
2018-12-25T03:03:49.827Z,-0.20
2018-12-25T03:06:20.567Z,-0.20
2018-12-25T03:08:51.265Z,-0.10
2018-12-25T03:11:21.922Z,-0.10
2018-12-25T03:13:52.637Z,0.00
2018-12-25T03:16:23.282Z,0.00
2018-12-25T03:18:53.904Z,0.00
2018-12-25T03:21:24.622Z,-0.10
2018-12-25T03:23:55.341Z,-0.10
2018-12-25T03:26:26.010Z,-0.10
2018-12-25T03:28:56.658Z,-0.10
2018-12-25T03:31:27.394Z,-0.20
2018-12-25T03:33:58.109Z,-0.10
2018-12-25T03:36:28.806Z,-0.10
2018-12-25T03:38:59.444Z,-0.20
2018-12-25T03:41:30.216Z,-0.20
2018-12-25T03:44:00.874Z,-0.20
2018-12-25T03:46:31.618Z,-0.10
2018-12-25T03:49:02.367Z,-0.10
2018-12-25T03:51:33.000Z,-0.10
2018-12-25T03:54:03.747Z,-0.10
2018-12-25T03:56:34.475Z,-0.10
2018-12-25T03:59:05.307Z,-0.10
2018-12-25T04:01:36.012Z,-0.10
2018-12-25T04:04:06.750Z,-0.10
2018-12-25T04:06:40.401Z,-0.10
2018-12-25T04:09:11.134Z,-0.10
2018-12-25T04:11:41.779Z,-0.10
2018-12-25T04:14:12.520Z,-0.20
2018-12-25T04:16:43.096Z,-0.20
2018-12-25T04:19:13.849Z,-0.30
2018-12-25T04:21:44.560Z,-0.30
2018-12-25T04:24:15.231Z,-0.40
2018-12-25T04:26:45.887Z,-0.40
2018-12-25T04:29:16.556Z,-0.30
2018-12-25T04:31:47.206Z,-0.30
2018-12-25T04:34:17.887Z,-0.40
2018-12-25T04:36:48.553Z,-0.40
2018-12-25T04:39:19.230Z,-0.40
2018-12-25T04:41:49.930Z,-0.50
2018-12-25T04:44:20.677Z,-0.60
2018-12-25T04:46:51.390Z,-0.60
2018-12-25T04:49:22.050Z,-0.60
2018-12-25T04:51:52.797Z,-0.60
2018-12-25T04:54:23.533Z,-0.60
2018-12-25T04:56:54.233Z,-0.60
2018-12-25T04:59:24.893Z,-0.60
2018-12-25T05:01:55.609Z,-0.60
2018-12-25T05:04:26.357Z,-0.70
2018-12-25T05:06:57.004Z,-0.70
2018-12-25T05:09:27.654Z,-0.80
2018-12-25T05:11:59.330Z,-0.80
2018-12-25T05:14:30.077Z,-0.70
2018-12-25T05:17:00.720Z,-0.70
2018-12-25T05:19:31.457Z,-0.70
2018-12-25T05:22:02.177Z,-0.70
2018-12-25T05:24:32.893Z,-0.60
2018-12-25T05:27:03.537Z,-0.70
2018-12-25T05:29:34.190Z,-0.90
2018-12-25T05:32:04.902Z,-0.90
2018-12-25T05:34:35.485Z,-1.00
2018-12-25T05:37:06.145Z,-1.00
2018-12-25T05:39:36.806Z,-1.00
2018-12-25T05:42:07.516Z,-1.00
2018-12-25T05:44:38.245Z,-1.00
2018-12-25T05:47:08.951Z,-1.10
2018-12-25T05:49:39.597Z,-1.10
2018-12-25T05:52:10.148Z,-1.00
2018-12-25T05:54:40.801Z,-1.00
2018-12-25T05:57:11.506Z,-1.00
2018-12-25T05:59:42.231Z,-0.90
2018-12-25T06:02:12.933Z,-0.90
2018-12-25T06:04:43.577Z,-1.00
2018-12-25T06:07:14.217Z,-0.90
2018-12-25T06:09:44.950Z,-1.00
2018-12-25T06:12:15.573Z,-1.10
2018-12-25T06:14:46.237Z,-1.10
2018-12-25T06:17:16.880Z,-1.10
2018-12-25T06:19:47.620Z,-1.20
2018-12-25T06:22:18.337Z,-1.10
2018-12-25T06:24:49.000Z,-1.10
2018-12-25T06:27:19.638Z,-1.10
2018-12-25T06:29:50.370Z,-1.00
2018-12-25T06:32:21.084Z,-0.90
2018-12-25T06:34:51.754Z,-0.80
2018-12-25T06:37:22.472Z,-0.80
2018-12-25T06:39:53.130Z,-0.80
2018-12-25T06:42:23.838Z,-0.80
2018-12-25T06:44:54.489Z,-0.90
2018-12-25T06:47:25.202Z,-0.80
2018-12-25T06:49:55.926Z,-0.70
2018-12-25T06:52:26.548Z,-0.60
2018-12-25T06:54:57.211Z,-0.50
2018-12-25T06:57:27.925Z,-0.40
2018-12-25T06:59:58.658Z,-0.40
2018-12-25T07:02:29.298Z,-0.40
2018-12-25T07:05:00.017Z,-0.40
2018-12-25T07:07:30.645Z,-0.40
2018-12-25T07:10:01.378Z,-0.40
2018-12-25T07:12:32.077Z,-0.40
2018-12-25T07:15:02.758Z,-0.30
2018-12-25T07:17:37.233Z,-0.30
2018-12-25T07:20:07.890Z,0.60
2018-12-25T07:22:38.610Z,0.30
2018-12-25T07:25:09.353Z,-0.10
2018-12-25T07:27:39.985Z,-0.10
2018-12-25T07:30:10.649Z,-0.10
2018-12-25T07:32:49.535Z,0.00
2018-12-25T07:41:19.425Z,0.10
2018-12-25T07:43:50.145Z,0.10
2018-12-25T07:46:20.805Z,0.10
2018-12-25T13:30:59.794Z,1.90
2018-12-25T13:33:30.536Z,1.90
2018-12-25T13:36:01.245Z,1.70
2018-12-25T13:38:31.834Z,1.90
2018-12-25T13:41:02.534Z,2.10
2018-12-25T13:43:33.359Z,2.10
2018-12-25T13:46:04.065Z,2.10
2018-12-25T13:48:34.709Z,1.90
2018-12-25T13:51:05.253Z,2.10
2018-12-25T13:53:35.885Z,2.10
2018-12-25T13:56:06.519Z,2.10
2018-12-25T13:58:37.149Z,2.00
2018-12-25T14:01:07.778Z,2.00
2018-12-25T14:03:38.414Z,1.90
2018-12-25T14:06:09.040Z,1.90
2018-12-25T14:08:39.692Z,1.90
2018-12-25T14:11:10.375Z,1.80
2018-12-25T14:13:41.089Z,1.80
2018-12-25T14:16:11.713Z,1.50
2018-12-25T14:18:42.395Z,1.60
2018-12-25T14:21:13.022Z,1.70
2018-12-25T14:23:43.701Z,1.80
2018-12-25T14:26:14.417Z,1.80
2018-12-25T14:28:45.173Z,1.80
2018-12-25T14:31:15.801Z,1.80
2018-12-25T14:33:46.537Z,1.60
2018-12-25T14:36:17.254Z,1.60
2018-12-25T14:38:48.017Z,2.50
2018-12-25T14:41:18.715Z,1.50
2018-12-25T14:43:49.477Z,1.20
2018-12-25T14:46:20.105Z,1.20
2018-12-25T14:48:50.830Z,1.10
2018-12-25T14:51:21.450Z,1.00
2018-12-25T14:53:52.177Z,1.00
2018-12-25T14:56:22.913Z,1.00
2018-12-25T14:58:53.688Z,0.90
2018-12-25T15:01:24.393Z,1.00
2018-12-25T15:03:55.089Z,0.90
2018-12-25T15:06:25.721Z,0.80
2018-12-25T15:08:56.374Z,0.80
2018-12-25T15:11:27.077Z,0.80
2018-12-25T15:13:57.814Z,0.70
2018-12-25T15:16:28.542Z,0.70
2018-12-25T15:18:59.257Z,0.60
2018-12-25T15:21:29.989Z,0.60
2018-12-25T15:24:00.712Z,0.50
2018-12-25T15:26:31.457Z,0.60
2018-12-25T15:29:02.171Z,0.60
2018-12-25T15:31:32.897Z,0.60
2018-12-25T15:34:03.530Z,0.50
2018-12-25T15:36:34.281Z,0.50
2018-12-25T15:39:08.365Z,0.40
2018-12-25T15:41:39.034Z,0.40
2018-12-25T15:44:09.743Z,0.40
2018-12-25T15:46:40.462Z,0.40
2018-12-25T15:49:11.156Z,0.40
2018-12-25T15:51:43.897Z,0.40
2018-12-25T15:54:14.518Z,0.40
2018-12-25T15:56:45.270Z,0.20
2018-12-25T15:59:15.909Z,0.20
2018-12-25T16:01:47.146Z,0.20
2018-12-25T16:04:22.683Z,0.20
2018-12-25T16:06:54.703Z,0.10
2018-12-25T16:09:25.694Z,0.00
2018-12-25T16:11:56.626Z,0.00
2018-12-25T16:14:27.611Z,0.00
2018-12-25T17:43:16.845Z,-0.30
2018-12-25T17:54:28.435Z,-0.30
2018-12-25T18:02:01.298Z,-0.30
2018-12-25T18:04:32.916Z,-0.30
2018-12-25T18:07:04.502Z,-0.30
2018-12-25T18:09:35.418Z,-0.30
2018-12-25T18:12:06.342Z,-0.40
2018-12-25T18:14:38.126Z,-0.50
2018-12-25T18:19:39.443Z,-0.50
2018-12-25T18:22:10.784Z,-0.50
2018-12-25T18:24:44.913Z,-0.60
2018-12-25T18:27:15.810Z,-0.60
2018-12-25T18:29:46.870Z,-0.60
2018-12-25T18:32:17.766Z,-0.60
2018-12-25T18:34:49.872Z,-0.60
2018-12-25T18:37:20.753Z,-0.60
2018-12-25T18:39:56.401Z,-0.60
2018-12-25T18:42:27.447Z,-0.60
2018-12-25T18:44:59.624Z,-0.60
2018-12-25T18:47:30.428Z,-0.60
2018-12-25T18:52:37.125Z,-0.50
2018-12-25T18:55:14.244Z,-0.50
2018-12-25T19:00:18.054Z,-0.50
2018-12-25T19:02:48.927Z,-0.50
2018-12-25T19:06:10.246Z,-0.50
2018-12-25T19:08:41.319Z,-0.60
2018-12-25T19:11:14.196Z,-0.60
2018-12-25T19:13:45.733Z,-0.60
2018-12-25T19:16:16.566Z,-0.50
2018-12-25T19:18:47.530Z,-0.60
2018-12-25T19:21:19.536Z,-0.50
2018-12-25T19:23:58.241Z,-0.50
2018-12-25T19:26:29.386Z,-0.50
2018-12-25T19:29:00.317Z,-0.40
2018-12-25T19:31:31.478Z,-0.50
2018-12-25T19:34:03.651Z,-0.50
2018-12-25T19:36:34.642Z,-0.50
2018-12-25T19:39:08.905Z,-0.40
2018-12-25T19:41:39.707Z,-0.40
2018-12-25T19:44:18.638Z,-0.40
2018-12-25T19:46:49.632Z,-0.40
2018-12-25T19:49:22.711Z,-0.30
2018-12-25T19:51:53.776Z,-0.40
2018-12-25T19:54:24.589Z,-0.40
2018-12-25T19:56:55.373Z,-0.40
2018-12-25T19:59:26.057Z,-0.40
2018-12-25T20:01:56.782Z,-0.40
2018-12-25T20:05:06.654Z,-0.40
2018-12-25T20:08:10.402Z,-0.40
2018-12-25T20:11:15.731Z,-0.40
2018-12-25T20:14:24.405Z,-0.30
2018-12-25T20:17:18.698Z,-0.30
2018-12-25T20:20:39.600Z,-0.40
2018-12-25T20:23:53.329Z,-0.30
2018-12-25T20:27:00.143Z,-0.30
2018-12-25T20:30:30.361Z,-0.40
2018-12-25T20:34:00.194Z,-0.30
2018-12-25T20:37:36.873Z,-0.30
2018-12-25T20:40:40.857Z,-0.30
2018-12-25T20:44:08.193Z,-0.30
2018-12-25T20:47:16.436Z,-0.40
2018-12-25T20:50:31.170Z,-0.30
2018-12-25T20:53:28.674Z,-0.20
2018-12-25T20:56:29.837Z,-0.10
2018-12-25T20:59:31.690Z,-0.10
2018-12-25T21:02:49.334Z,-0.10
2018-12-25T21:05:48.214Z,-0.10
2018-12-25T21:09:06.529Z,-0.20
2018-12-25T21:12:25.574Z,-0.10
2018-12-25T21:15:38.164Z,-0.10
2018-12-25T21:18:46.181Z,-0.10
2018-12-25T21:22:03.816Z,0.00
2018-12-25T21:25:17.669Z,0.00
2018-12-25T21:27:51.966Z,0.00
2018-12-25T21:30:24.300Z,0.00
2018-12-25T21:32:55.327Z,0.00
2018-12-25T21:35:26.778Z,-0.10
2018-12-25T21:37:58.869Z,0.10
2018-12-25T21:40:29.884Z,0.50
2018-12-25T21:43:03.570Z,0.20
2018-12-25T21:45:34.494Z,0.10
2018-12-25T21:50:36.223Z,0.10
2018-12-25T21:53:07.201Z,0.00
2018-12-25T21:58:09.949Z,-0.10
2018-12-25T22:00:41.188Z,0.00
2018-12-25T22:03:31.085Z,0.00
2018-12-25T22:06:02.741Z,0.00
2018-12-25T22:08:33.676Z,0.10
2018-12-25T22:11:04.430Z,0.10
2018-12-25T22:13:36.131Z,0.10
2018-12-25T22:16:06.955Z,0.00
2018-12-25T22:18:39.922Z,0.10
2018-12-25T22:21:10.889Z,0.10
2018-12-25T22:23:42.785Z,0.10
2018-12-25T22:26:15.885Z,0.20
2018-12-25T22:28:47.209Z,0.20
2018-12-25T22:31:18.077Z,0.20
2018-12-25T22:33:48.810Z,0.20
2018-12-25T22:36:19.470Z,0.20
2018-12-25T22:38:50.229Z,0.20
2018-12-25T22:41:21.821Z,0.20
2018-12-25T22:43:52.527Z,0.20
2018-12-25T22:46:23.271Z,0.20
2018-12-25T22:48:54.038Z,0.20
2018-12-25T22:51:24.781Z,0.20
2018-12-25T22:53:55.509Z,0.20
2018-12-25T22:56:26.279Z,0.30
2018-12-25T22:58:57.110Z,0.30
2018-12-25T23:01:27.757Z,0.40
2018-12-25T23:08:58.810Z,0.40
2018-12-25T23:11:29.574Z,0.30
2018-12-25T23:14:00.358Z,0.30
2018-12-25T23:21:31.810Z,0.40
2018-12-25T23:24:02.594Z,0.40
2018-12-25T23:26:34.386Z,0.40
2018-12-25T23:29:05.139Z,0.50
2018-12-25T23:31:35.845Z,0.50
2018-12-25T23:34:06.587Z,0.50
2018-12-25T23:36:37.377Z,0.50
2018-12-25T23:39:08.585Z,0.50
2018-12-25T23:41:39.346Z,0.50
2018-12-25T23:44:10.196Z,0.50
2018-12-25T23:46:41.026Z,0.50
2018-12-25T23:49:11.860Z,0.50
2018-12-25T23:51:42.610Z,0.60
2018-12-25T23:54:13.437Z,0.60
2018-12-25T23:56:44.264Z,0.50
2018-12-25T23:59:15.181Z,0.60
